Airfield :
LOGIN :

Register | Disclaimer

   EN    FR    IT 

 










Legend :    VFR   Marginal VFR   IFR   Intensive IFR   Very Intensive IFR
Visi :
Ceiling :
>= 8 km
>= 3000ft
5 to 8 km
1000 to 3000 ft
1500m to 5 km
500 to 1000 ft
800 to 1500m
200 to 500 ft
< 800m
< 200 ft
Symbols :   Thunderstorms  Fog  Heavy snow  Heavy precipitations  Wind > 20 kt
SIGMETs :     Misc.  Thunderstorms  Icing  Turbulence  Mountain Waves  Volcanic Ashes






- Airport Elevation : 52 ft
- IATA code : IOM


EGNS - Isle of Man

CURRENT METAR :
  • 282050Z 24016KT 8000 -RA SCT004 BKN010 OVC045 10/10 Q1002

EXPIRED METARs :
  • 282020Z 24016KT 3000 RADZ BKN004 BKN012 OVC028 10/10 Q1002 NOSIG
  • 281950Z 22014KT 7000 BKN003 OVC004 10/09 Q1002 TEMPO 4000 RADZ
  • 281920Z 21017KT 6000 SCT002 BKN003 OVC004 10/10 Q1002 TEMPO 3000 RADZ BKN001
  • 281850Z 21017KT 5000 BR BKN002 OVC003 10/10 Q1003 RERA TEMPO 3000 RADZ BKN001
  • 281820Z 21017KT 5000 RA BKN002 OVC012 10/10 Q1003 TEMPO 3000 RADZ
  • 281750Z 21019KT 4500 RA BKN003 OVC015 10/10 Q1003 TEMPO 6000 -RADZ SCT003 BKN006
  • 281720Z 21017KT 3500 RA BKN003 OVC015 10/09 Q1004 TEMPO 6000 -RADZ
  • 281650Z 21017KT 3500 RA BKN003 OVC015 10/09 Q1004 NOSIG

Expired Forecast.



MET'MAP, your aeronautical weather chart ! - Copyright ORBIFLY December 2007 - Disclaimer

ORBIFLY MET'MAP TEAM :

Programming & Development : Alexandra Zaïnal
Original concept : Baudouin d'Aumeries
Technical & hardware support : Manuel Goepfert
Assistance : Marc-Olivier Méhu




SOURCES & CREDITS :

   NOAA